Time;durP1;ratioP1;P1;durP2;ratioP2;P2;SDS_P1;SDS_P2;PMS_P1;PMS_P2;Temp;Humidity;BMP_temperature;BMP_pressure;BME280_temperature;BME280_humidity;BME280_pressure;Samples;Min_cycle;Max_cycle;Signal;HPM_P1;HPM_P2
2021/04/30 00:01:46;;;;;;;25.80;17.77;;;;;;;;;;5035038;28;20465;-61
2021/04/30 00:04:13;;;;;;;24.60;19.27;;;;;;;;;;5034995;28;20452;-60
2021/04/30 00:06:39;;;;;;;30.43;18.03;;;;;;;;;;5034865;28;20452;-55
2021/04/30 00:09:06;;;;;;;25.33;18.07;;;;;;;;;;5035131;28;20453;-61
2021/04/30 00:11:32;;;;;;;28.83;17.20;;;;;;;;;;5033642;28;20475;-62
2021/04/30 00:13:59;;;;;;;27.57;18.63;;;;;;;;;;5033272;28;20460;-63
2021/04/30 00:16:26;;;;;;;26.10;18.30;;;;;;;;;;5033874;28;20453;-60
2021/04/30 00:18:53;;;;;;;23.03;17.80;;;;;;;;;;5034050;28;20441;-61
2021/04/30 00:21:19;;;;;;;25.00;16.73;;;;;;;;;;5034310;28;20453;-61
2021/04/30 00:23:46;;;;;;;29.33;19.10;;;;;;;;;;5034765;28;20472;-56
2021/04/30 00:26:12;;;;;;;24.57;17.33;;;;;;;;;;5034582;28;21020;-60
2021/04/30 00:28:39;;;;;;;26.60;17.97;;;;;;;;;;5034273;28;20488;-62
2021/04/30 00:31:05;;;;;;;28.63;17.70;;;;;;;;;;5034582;28;20453;-57
2021/04/30 00:33:33;;;;;;;24.43;17.13;;;;;;;;;;5033718;28;20476;-60
2021/04/30 00:35:59;;;;;;;27.47;17.87;;;;;;;;;;5034304;28;20448;-60
2021/04/30 00:38:26;;;;;;;29.30;17.90;;;;;;;;;;5034441;28;20441;-62
2021/04/30 00:40:53;;;;;;;23.73;18.27;;;;;;;;;;5034233;28;20479;-56
2021/04/30 00:43:20;;;;;;;28.57;17.77;;;;;;;;;;5033955;28;20539;-62
2021/04/30 00:45:46;;;;;;;29.93;17.90;;;;;;;;;;5033440;28;20456;-58
2021/04/30 00:48:13;;;;;;;25.33;16.87;;;;;;;;;;5034341;28;20578;-58
2021/04/30 00:50:41;;;;;;;24.27;17.93;;;;;;;;;;5033911;28;20468;-60
2021/04/30 00:53:07;;;;;;;27.63;19.50;;;;;;;;;;5033942;28;20537;-60
2021/04/30 00:55:34;;;;;;;30.47;20.47;;;;;;;;;;5033091;28;20548;-62
2021/04/30 00:58:01;;;;;;;32.97;21.33;;;;;;;;;;5034214;28;20876;-62
2021/04/30 01:00:29;;;;;;;32.57;21.47;;;;;;;;;;5033683;28;20502;-62
2021/04/30 01:02:56;;;;;;;34.10;22.13;;;;;;;;;;5032963;28;20477;-59
2021/04/30 01:05:23;;;;;;;34.60;21.23;;;;;;;;;;5033902;28;20453;-62
2021/04/30 01:07:50;;;;;;;34.53;23.87;;;;;;;;;;5033466;28;20985;-60
2021/04/30 01:10:17;;;;;;;35.03;25.63;;;;;;;;;;5033483;28;20468;-62
2021/04/30 01:12:44;;;;;;;40.27;26.17;;;;;;;;;;5032444;28;20898;-60
2021/04/30 01:15:12;;;;;;;42.40;25.33;;;;;;;;;;5033488;28;20452;-57
2021/04/30 01:17:39;;;;;;;40.53;24.27;;;;;;;;;;5033736;28;20495;-62
2021/04/30 01:20:06;;;;;;;39.37;24.20;;;;;;;;;;5034757;28;20449;-62
2021/04/30 01:22:34;;;;;;;35.47;25.53;;;;;;;;;;5034630;28;20853;-62
2021/04/30 01:25:01;;;;;;;42.37;26.50;;;;;;;;;;5034600;28;20460;-58
2021/04/30 01:27:28;;;;;;;41.17;25.30;;;;;;;;;;5033817;28;20538;-60
2021/04/30 01:29:54;;;;;;;38.80;26.60;;;;;;;;;;5033534;28;20849;-62
2021/04/30 01:32:21;;;;;;;41.60;25.83;;;;;;;;;;5033517;28;20477;-61
2021/04/30 01:34:47;;;;;;;35.63;24.83;;;;;;;;;;5034344;28;20511;-62
2021/04/30 01:37:14;;;;;;;45.30;25.93;;;;;;;;;;5034936;28;20441;-62
2021/04/30 01:39:41;;;;;;;37.53;27.83;;;;;;;;;;5035900;28;20453;-62
2021/04/30 01:42:08;;;;;;;39.57;27.63;;;;;;;;;;5033415;28;20468;-63
2021/04/30 01:44:35;;;;;;;49.13;28.07;;;;;;;;;;5032526;28;20460;-63
2021/04/30 01:47:02;;;;;;;47.33;28.70;;;;;;;;;;5032627;28;20485;-62
2021/04/30 01:49:28;;;;;;;44.30;31.47;;;;;;;;;;5032941;28;20945;-59
2021/04/30 01:51:55;;;;;;;51.47;29.97;;;;;;;;;;5033223;28;20465;-59
2021/04/30 01:54:22;;;;;;;41.90;26.70;;;;;;;;;;5032882;28;20826;-61
2021/04/30 01:56:49;;;;;;;47.83;29.37;;;;;;;;;;5033099;28;20469;-61
2021/04/30 01:59:16;;;;;;;43.87;28.93;;;;;;;;;;5032611;28;20452;-58
2021/04/30 02:01:42;;;;;;;46.17;31.47;;;;;;;;;;5032476;28;20473;-62
2021/04/30 02:04:11;;;;;;;49.67;31.13;;;;;;;;;;5031302;28;20503;-63
2021/04/30 02:06:38;;;;;;;52.40;30.40;;;;;;;;;;5032203;28;20452;-63
2021/04/30 02:09:06;;;;;;;51.40;31.87;;;;;;;;;;5032708;28;20476;-56
2021/04/30 02:11:32;;;;;;;50.27;31.63;;;;;;;;;;5032107;28;20473;-54
2021/04/30 02:14:00;;;;;;;54.67;33.63;;;;;;;;;;5031501;28;20465;-59
2021/04/30 02:16:26;;;;;;;58.10;32.80;;;;;;;;;;5032393;28;20445;-58
2021/04/30 02:18:53;;;;;;;53.77;34.13;;;;;;;;;;5032628;28;20820;-60
2021/04/30 02:21:19;;;;;;;51.97;31.97;;;;;;;;;;5031918;28;20460;-60
2021/04/30 02:23:46;;;;;;;50.60;33.07;;;;;;;;;;5032646;28;20496;-61
2021/04/30 02:26:15;;;;;;;59.60;34.53;;;;;;;;;;5031588;28;20539;-60
2021/04/30 02:28:45;;;;;;;58.90;33.73;;;;;;;;;;5032150;28;20572;-57
2021/04/30 02:31:12;;;;;;;49.23;32.37;;;;;;;;;;5032122;28;20453;-58
2021/04/30 02:33:38;;;;;;;47.90;31.07;;;;;;;;;;5030635;28;20465;-60
2021/04/30 02:36:05;;;;;;;46.57;28.63;;;;;;;;;;5032151;28;20938;-60
2021/04/30 02:38:33;;;;;;;48.10;29.70;;;;;;;;;;5033496;28;20448;-60
2021/04/30 02:41:00;;;;;;;45.63;29.50;;;;;;;;;;5034677;28;20493;-60
2021/04/30 02:43:26;;;;;;;46.43;27.80;;;;;;;;;;5031673;28;20473;-64
2021/04/30 02:45:53;;;;;;;42.70;26.93;;;;;;;;;;5031827;28;20820;-56
2021/04/30 02:48:28;;;;;;;37.73;25.77;;;;;;;;;;5032118;28;20988;-57
2021/04/30 02:50:55;;;;;;;43.83;27.97;;;;;;;;;;5036964;28;20476;-61
2021/04/30 02:53:21;;;;;;;35.13;24.90;;;;;;;;;;5038017;28;20465;-60
2021/04/30 02:55:48;;;;;;;42.60;24.77;;;;;;;;;;5033494;28;20456;-61
2021/04/30 02:58:14;;;;;;;41.70;24.70;;;;;;;;;;5031949;28;20456;-63
2021/04/30 03:00:41;;;;;;;44.90;24.40;;;;;;;;;;5030696;28;20449;-63
2021/04/30 03:03:07;;;;;;;39.33;23.33;;;;;;;;;;5030948;28;21007;-63
2021/04/30 03:05:35;;;;;;;42.33;24.83;;;;;;;;;;5031531;28;20820;-60
2021/04/30 03:08:02;;;;;;;37.10;23.20;;;;;;;;;;5031639;28;20480;-62
2021/04/30 03:10:28;;;;;;;36.30;24.37;;;;;;;;;;5032071;28;20472;-61
2021/04/30 03:12:55;;;;;;;37.87;24.23;;;;;;;;;;5030964;28;20538;-61
2021/04/30 03:15:22;;;;;;;39.33;24.27;;;;;;;;;;5031685;28;20456;-62
2021/04/30 03:17:49;;;;;;;40.93;25.70;;;;;;;;;;5031771;28;20445;-60
2021/04/30 03:20:16;;;;;;;48.60;25.60;;;;;;;;;;5031656;28;20457;-62
2021/04/30 03:22:44;;;;;;;44.47;26.67;;;;;;;;;;5031295;28;20872;-60
2021/04/30 03:25:11;;;;;;;42.83;26.93;;;;;;;;;;5030645;28;20522;-61
2021/04/30 03:27:37;;;;;;;47.67;26.57;;;;;;;;;;5031461;28;20485;-61
2021/04/30 03:30:04;;;;;;;48.73;29.33;;;;;;;;;;5031706;28;20459;-59
2021/04/30 03:32:31;;;;;;;48.17;27.17;;;;;;;;;;5031413;28;20465;-60
2021/04/30 03:34:57;;;;;;;50.47;27.93;;;;;;;;;;5030877;28;20448;-63
2021/04/30 03:37:24;;;;;;;44.07;27.57;;;;;;;;;;5031649;28;20483;-59
2021/04/30 03:39:51;;;;;;;50.63;27.63;;;;;;;;;;5031527;28;20944;-59
2021/04/30 03:42:18;;;;;;;51.93;28.13;;;;;;;;;;5030859;28;20539;-62
2021/04/30 03:44:45;;;;;;;46.57;28.70;;;;;;;;;;5031968;28;20457;-58
2021/04/30 03:47:11;;;;;;;50.30;28.50;;;;;;;;;;5035536;28;20499;-60
2021/04/30 03:49:38;;;;;;;44.87;28.20;;;;;;;;;;5035091;28;20777;-57
2021/04/30 03:52:05;;;;;;;51.10;28.87;;;;;;;;;;5035383;28;20508;-58
2021/04/30 03:54:31;;;;;;;58.67;29.53;;;;;;;;;;5034355;28;20460;-60
2021/04/30 03:56:59;;;;;;;50.90;28.20;;;;;;;;;;5034926;28;20499;-60
2021/04/30 03:59:25;;;;;;;43.80;28.87;;;;;;;;;;5035168;28;20441;-56
2021/04/30 04:01:52;;;;;;;48.50;27.87;;;;;;;;;;5035207;28;20480;-59
2021/04/30 04:04:19;;;;;;;52.93;30.80;;;;;;;;;;5033989;28;20459;-59
2021/04/30 04:06:45;;;;;;;53.13;30.30;;;;;;;;;;5033450;28;20459;-61
2021/04/30 04:09:12;;;;;;;59.07;29.50;;;;;;;;;;5034866;28;20456;-62
2021/04/30 04:11:38;;;;;;;61.00;30.43;;;;;;;;;;5034248;28;20483;-60
2021/04/30 04:14:06;;;;;;;51.03;31.23;;;;;;;;;;5034233;28;20453;-62
2021/04/30 04:16:34;;;;;;;49.30;30.03;;;;;;;;;;5025704;28;20453;-60
2021/04/30 04:19:00;;;;;;;51.57;31.23;;;;;;;;;;5014706;28;20987;-59
2021/04/30 04:21:27;;;;;;;52.63;32.70;;;;;;;;;;4998471;28;20458;-64
2021/04/30 04:23:53;;;;;;;54.63;32.17;;;;;;;;;;4995965;28;20457;-59
2021/04/30 04:26:20;;;;;;;60.33;35.07;;;;;;;;;;4994863;28;20461;-56
2021/04/30 04:28:46;;;;;;;58.60;35.33;;;;;;;;;;4994673;28;21002;-56
2021/04/30 04:31:14;;;;;;;67.37;35.53;;;;;;;;;;4994632;28;20454;-59
2021/04/30 04:33:40;;;;;;;62.90;34.93;;;;;;;;;;4994175;28;20453;-58
2021/04/30 04:36:07;;;;;;;69.17;38.33;;;;;;;;;;4994911;28;21013;-58
2021/04/30 04:38:34;;;;;;;65.60;37.50;;;;;;;;;;4994320;28;20513;-58
2021/04/30 04:41:00;;;;;;;64.70;38.73;;;;;;;;;;5013550;28;20461;-57
2021/04/30 04:43:27;;;;;;;70.30;40.50;;;;;;;;;;5014158;28;20838;-52
2021/04/30 04:45:53;;;;;;;73.83;41.03;;;;;;;;;;5013670;28;20465;-53
2021/04/30 04:48:21;;;;;;;76.67;38.70;;;;;;;;;;5014149;28;20486;-55
2021/04/30 04:50:47;;;;;;;68.13;39.20;;;;;;;;;;5013875;28;20449;-56
2021/04/30 04:53:14;;;;;;;70.53;39.93;;;;;;;;;;5014008;28;20474;-56
2021/04/30 04:55:40;;;;;;;64.87;37.70;;;;;;;;;;5014208;28;20824;-57
2021/04/30 04:58:06;;;;;;;67.07;39.77;;;;;;;;;;5014015;28;20504;-55
2021/04/30 05:00:33;;;;;;;76.13;39.60;;;;;;;;;;5014549;28;20796;-57
2021/04/30 05:03:00;;;;;;;75.10;40.83;;;;;;;;;;5013540;28;21052;-57
2021/04/30 05:05:27;;;;;;;75.67;40.10;;;;;;;;;;5013994;28;20461;-56
2021/04/30 05:07:54;;;;;;;74.10;39.87;;;;;;;;;;5013404;28;20477;-59
2021/04/30 05:10:22;;;;;;;76.37;39.20;;;;;;;;;;5013889;28;20454;-55
2021/04/30 05:12:48;;;;;;;78.67;40.77;;;;;;;;;;5013677;28;20528;-56
2021/04/30 05:15:15;;;;;;;73.60;42.03;;;;;;;;;;5013627;28;20496;-56
2021/04/30 05:17:43;;;;;;;70.10;41.10;;;;;;;;;;5013407;28;21009;-56
2021/04/30 05:20:10;;;;;;;79.10;39.70;;;;;;;;;;5008927;28;20553;-62
2021/04/30 05:22:40;;;;;;;92.77;43.20;;;;;;;;;;5013237;28;20470;-61
2021/04/30 05:25:07;;;;;;;74.50;41.60;;;;;;;;;;5012515;28;20457;-58
2021/04/30 05:27:34;;;;;;;88.87;44.17;;;;;;;;;;5013727;28;20937;-61
2021/04/30 05:30:00;;;;;;;84.40;43.73;;;;;;;;;;5012377;28;20449;-62
2021/04/30 05:32:27;;;;;;;91.33;44.50;;;;;;;;;;5011537;28;20473;-59
2021/04/30 05:34:55;;;;;;;83.13;44.03;;;;;;;;;;5012529;28;20485;-61
2021/04/30 05:37:22;;;;;;;93.03;46.83;;;;;;;;;;5013471;28;20446;-57
2021/04/30 05:39:49;;;;;;;104.77;45.77;;;;;;;;;;5012532;28;20446;-57
2021/04/30 05:42:16;;;;;;;98.57;48.23;;;;;;;;;;5012297;28;20465;-59
2021/04/30 05:44:42;;;;;;;99.90;49.13;;;;;;;;;;5012700;28;20512;-59
2021/04/30 05:47:09;;;;;;;100.67;47.63;;;;;;;;;;5012739;28;20446;-65
2021/04/30 05:49:35;;;;;;;97.30;48.43;;;;;;;;;;5012039;28;20457;-63
2021/04/30 05:52:02;;;;;;;95.90;47.77;;;;;;;;;;5012493;28;20481;-62
2021/04/30 05:54:28;;;;;;;104.73;48.27;;;;;;;;;;5012236;28;20446;-63
2021/04/30 05:56:56;;;;;;;86.63;46.70;;;;;;;;;;5012907;28;20450;-62
2021/04/30 05:59:22;;;;;;;103.87;47.50;;;;;;;;;;5012238;28;20459;-63
2021/04/30 06:01:49;;;;;;;96.57;45.80;;;;;;;;;;5014994;28;20466;-64
2021/04/30 06:04:15;;;;;;;107.13;51.07;;;;;;;;;;5017637;28;20951;-67
2021/04/30 06:06:42;;;;;;;111.90;51.20;;;;;;;;;;5017020;28;20457;-64
2021/04/30 06:09:08;;;;;;;110.80;51.07;;;;;;;;;;5010424;28;20841;-64
2021/04/30 06:11:35;;;;;;;102.97;49.67;;;;;;;;;;5012489;28;20495;-55
2021/04/30 06:14:02;;;;;;;118.53;52.60;;;;;;;;;;5013695;28;20442;-58
2021/04/30 06:16:29;;;;;;;116.50;52.60;;;;;;;;;;5015287;28;20450;-60
2021/04/30 06:18:55;;;;;;;123.07;51.90;;;;;;;;;;5015595;28;20474;-60
2021/04/30 06:21:22;;;;;;;117.10;49.77;;;;;;;;;;5015035;28;20822;-60
2021/04/30 06:23:48;;;;;;;109.27;49.07;;;;;;;;;;5017270;28;20450;-61
2021/04/30 06:26:14;;;;;;;118.93;51.97;;;;;;;;;;5012543;28;20966;-54
2021/04/30 06:28:41;;;;;;;120.03;50.80;;;;;;;;;;5012357;28;20486;-60
2021/04/30 06:31:09;;;;;;;124.27;48.87;;;;;;;;;;5013728;28;21001;-60
2021/04/30 06:33:36;;;;;;;120.97;50.17;;;;;;;;;;5012936;28;20481;-62
2021/04/30 06:36:03;;;;;;;126.30;51.40;;;;;;;;;;5011502;28;20465;-58
2021/04/30 06:38:29;;;;;;;117.73;47.47;;;;;;;;;;5012094;28;20442;-58
2021/04/30 06:40:56;;;;;;;118.53;50.20;;;;;;;;;;5011544;28;20454;-62
2021/04/30 06:43:22;;;;;;;122.10;50.67;;;;;;;;;;5010742;28;20989;-65
2021/04/30 06:45:49;;;;;;;123.17;49.87;;;;;;;;;;5011627;28;20446;-58
2021/04/30 06:48:16;;;;;;;123.17;51.63;;;;;;;;;;5011812;28;20579;-60
2021/04/30 06:50:43;;;;;;;128.80;50.27;;;;;;;;;;5011635;28;20453;-62
2021/04/30 06:53:09;;;;;;;125.50;51.80;;;;;;;;;;5010964;28;20462;-63
2021/04/30 06:55:36;;;;;;;137.77;53.07;;;;;;;;;;5011743;28;20454;-57
2021/04/30 06:58:02;;;;;;;136.93;53.27;;;;;;;;;;5011700;28;20879;-55
2021/04/30 07:00:29;;;;;;;132.97;51.77;;;;;;;;;;5011131;28;20539;-60
2021/04/30 07:02:55;;;;;;;135.80;51.10;;;;;;;;;;5011771;28;20473;-61
2021/04/30 07:05:22;;;;;;;120.67;49.73;;;;;;;;;;5010905;28;20449;-60
2021/04/30 07:07:49;;;;;;;123.03;47.80;;;;;;;;;;5011884;28;20830;-62
2021/04/30 07:10:16;;;;;;;121.57;47.20;;;;;;;;;;5011064;28;20453;-61
2021/04/30 07:12:42;;;;;;;123.10;49.97;;;;;;;;;;5010869;28;20509;-62
2021/04/30 07:15:09;;;;;;;129.10;49.93;;;;;;;;;;5010953;28;20450;-62
2021/04/30 07:17:36;;;;;;;123.20;50.07;;;;;;;;;;5011442;28;20989;-62
2021/04/30 07:20:03;;;;;;;111.40;47.17;;;;;;;;;;5011848;28;20457;-62
2021/04/30 07:22:31;;;;;;;107.30;47.53;;;;;;;;;;5014654;28;20465;-62
2021/04/30 07:24:57;;;;;;;115.17;46.27;;;;;;;;;;5015013;28;20454;-63
2021/04/30 07:27:24;;;;;;;111.73;47.30;;;;;;;;;;5015224;28;20465;-58
2021/04/30 07:29:50;;;;;;;103.53;44.47;;;;;;;;;;5031470;28;20453;-57
2021/04/30 07:32:17;;;;;;;96.73;46.80;;;;;;;;;;5034873;28;20621;-62
2021/04/30 07:34:46;;;;;;;99.00;46.80;;;;;;;;;;5034106;28;20707;-59
2021/04/30 07:37:13;;;;;;;102.17;44.67;;;;;;;;;;5036428;28;20531;-61
2021/04/30 07:39:41;;;;;;;103.10;45.23;;;;;;;;;;5034328;28;20453;-60
2021/04/30 07:42:08;;;;;;;93.33;44.67;;;;;;;;;;5034537;28;20511;-63
2021/04/30 07:44:34;;;;;;;93.47;41.53;;;;;;;;;;5034293;28;20453;-61
2021/04/30 07:47:01;;;;;;;100.17;43.20;;;;;;;;;;5034347;28;20452;-57
2021/04/30 07:49:28;;;;;;;84.47;39.60;;;;;;;;;;5034687;28;20491;-56
2021/04/30 07:51:54;;;;;;;89.57;42.63;;;;;;;;;;5034486;28;20480;-56
2021/04/30 07:54:21;;;;;;;95.43;41.23;;;;;;;;;;5033930;28;20452;-65
2021/04/30 07:56:50;;;;;;;88.47;43.30;;;;;;;;;;5034638;28;20456;-65
2021/04/30 07:59:16;;;;;;;101.37;44.37;;;;;;;;;;5034442;28;20460;-65
2021/04/30 08:01:43;;;;;;;95.13;43.17;;;;;;;;;;5034551;28;20989;-63
2021/04/30 08:04:10;;;;;;;87.00;42.10;;;;;;;;;;5034893;28;20522;-63
2021/04/30 08:06:38;;;;;;;86.73;41.83;;;;;;;;;;5033553;28;20724;-60
2021/04/30 08:09:05;;;;;;;83.20;42.90;;;;;;;;;;5033843;28;20489;-60
2021/04/30 08:11:31;;;;;;;82.00;43.33;;;;;;;;;;5034396;28;20225;-63
2021/04/30 08:13:59;;;;;;;95.17;44.63;;;;;;;;;;5033691;28;20543;-60
2021/04/30 08:16:25;;;;;;;87.73;43.43;;;;;;;;;;5034187;28;20449;-61
2021/04/30 08:18:52;;;;;;;90.97;42.17;;;;;;;;;;5034437;28;20441;-61
2021/04/30 08:21:18;;;;;;;87.73;44.43;;;;;;;;;;5034308;28;20449;-65
2021/04/30 08:23:45;;;;;;;83.77;45.33;;;;;;;;;;5032833;28;20250;-58
2021/04/30 08:26:11;;;;;;;92.53;45.53;;;;;;;;;;5034151;28;20211;-52
2021/04/30 08:28:38;;;;;;;94.93;45.10;;;;;;;;;;5034116;28;20481;-57
2021/04/30 08:31:05;;;;;;;82.60;44.23;;;;;;;;;;5033402;28;20211;-59
2021/04/30 08:33:32;;;;;;;93.97;46.47;;;;;;;;;;5033427;28;20480;-59
2021/04/30 08:35:58;;;;;;;84.90;44.77;;;;;;;;;;5033131;28;20456;-58
2021/04/30 08:38:25;;;;;;;92.50;45.57;;;;;;;;;;5034129;28;20452;-65
2021/04/30 08:40:51;;;;;;;82.00;43.80;;;;;;;;;;5033508;28;20802;-63
2021/04/30 08:43:18;;;;;;;90.67;46.77;;;;;;;;;;5032995;28;20473;-64
2021/04/30 08:45:45;;;;;;;87.80;46.47;;;;;;;;;;5024559;28;20203;-61
2021/04/30 08:48:14;;;;;;;79.53;43.13;;;;;;;;;;5013912;28;20482;-62
2021/04/30 08:50:40;;;;;;;85.63;45.07;;;;;;;;;;5013127;28;20492;-63
2021/04/30 08:53:07;;;;;;;82.17;47.87;;;;;;;;;;5013066;28;20232;-63
2021/04/30 08:55:34;;;;;;;82.60;44.07;;;;;;;;;;5014035;28;20214;-60
2021/04/30 08:58:00;;;;;;;86.23;44.40;;;;;;;;;;5013389;28;20833;-63
2021/04/30 09:00:29;;;;;;;91.60;47.33;;;;;;;;;;5013405;28;20211;-63
2021/04/30 09:02:56;;;;;;;87.03;44.73;;;;;;;;;;5012734;28;20250;-63
2021/04/30 09:05:25;;;;;;;82.90;46.37;;;;;;;;;;5013506;28;20207;-63
2021/04/30 09:07:53;;;;;;;79.13;45.40;;;;;;;;;;5013368;28;20505;-60
2021/04/30 09:10:21;;;;;;;86.23;44.20;;;;;;;;;;5012732;28;20273;-64
2021/04/30 09:13:01;;;;;;;88.83;44.90;;;;;;;;;;5013699;28;20235;-59
2021/04/30 09:15:28;;;;;;;87.77;44.23;;;;;;;;;;5013385;28;20209;-60
2021/04/30 09:17:57;;;;;;;91.70;46.33;;;;;;;;;;5012595;28;20199;-65
2021/04/30 09:20:24;;;;;;;88.00;47.33;;;;;;;;;;5013207;28;20235;-64
2021/04/30 09:22:51;;;;;;;97.70;51.23;;;;;;;;;;5013067;28;20232;-65
2021/04/30 09:25:18;;;;;;;97.00;50.27;;;;;;;;;;5013491;28;20208;-64
2021/04/30 09:27:45;;;;;;;87.33;46.77;;;;;;;;;;5011274;28;20747;-57
2021/04/30 09:30:22;;;;;;;84.10;46.87;;;;;;;;;;5012685;28;20220;-65
2021/04/30 09:33:16;;;;;;;86.57;46.90;;;;;;;;;;5013370;28;20239;-63
2021/04/30 09:35:44;;;;;;;83.97;46.90;;;;;;;;;;4966888;28;20216;-55
2021/04/30 09:38:17;;;;;;;81.03;46.00;;;;;;;;;;5012945;28;20200;-65
2021/04/30 09:40:44;;;;;;;85.07;45.37;;;;;;;;;;5012504;28;20213;-65
2021/04/30 09:43:12;;;;;;;83.33;45.03;;;;;;;;;;5013163;28;20286;-64
2021/04/30 09:45:39;;;;;;;84.47;45.70;;;;;;;;;;5012183;28;20207;-64
2021/04/30 09:48:06;;;;;;;83.73;45.20;;;;;;;;;;5012708;28;20224;-58
2021/04/30 09:50:34;;;;;;;77.03;44.83;;;;;;;;;;5011538;28;20205;-61
2021/04/30 09:53:03;;;;;;;75.00;42.47;;;;;;;;;;5012317;28;20240;-60
2021/04/30 09:55:42;;;;;;;72.07;41.03;;;;;;;;;;5019088;28;20211;-60
2021/04/30 09:58:12;;;;;;;76.50;42.07;;;;;;;;;;5032636;28;20205;-61
2021/04/30 10:00:39;;;;;;;75.40;42.57;;;;;;;;;;5032875;28;20218;-59
2021/04/30 10:03:12;;;;;;;79.17;42.47;;;;;;;;;;5034039;28;20223;-59
2021/04/30 10:05:57;;;;;;;78.13;43.10;;;;;;;;;;5031936;28;20253;-58
2021/04/30 10:08:24;;;;;;;82.30;43.30;;;;;;;;;;5032556;28;20238;-58
2021/04/30 10:10:51;;;;;;;75.37;42.03;;;;;;;;;;5031884;28;20205;-64
2021/04/30 10:13:17;;;;;;;74.30;41.57;;;;;;;;;;5033003;28;20238;-64
2021/04/30 10:15:44;;;;;;;69.57;40.13;;;;;;;;;;5034577;28;20212;-63
2021/04/30 10:18:13;;;;;;;70.03;37.57;;;;;;;;;;5033919;28;20212;-65
2021/04/30 10:20:39;;;;;;;76.57;42.23;;;;;;;;;;5031534;28;20211;-60
2021/04/30 10:23:08;;;;;;;68.83;40.03;;;;;;;;;;5032249;28;20223;-60
2021/04/30 10:25:35;;;;;;;69.27;40.80;;;;;;;;;;5032141;28;20261;-60
2021/04/30 10:28:02;;;;;;;71.43;42.57;;;;;;;;;;5031466;28;20766;-57
2021/04/30 10:30:33;;;;;;;77.90;43.73;;;;;;;;;;5031443;28;20212;-64
2021/04/30 10:33:02;;;;;;;71.87;42.00;;;;;;;;;;5030917;28;20236;-64
2021/04/30 10:35:30;;;;;;;82.83;42.90;;;;;;;;;;5031256;28;20304;-64
2021/04/30 10:38:00;;;;;;;76.77;43.00;;;;;;;;;;5031791;28;20213;-64
2021/04/30 10:40:27;;;;;;;83.93;43.50;;;;;;;;;;5031468;28;20214;-64
2021/04/30 10:42:56;;;;;;;79.10;42.40;;;;;;;;;;5023626;28;20619;-63
2021/04/30 10:45:23;;;;;;;79.90;42.00;;;;;;;;;;5011684;28;20208;-62
2021/04/30 10:48:06;;;;;;;79.73;43.20;;;;;;;;;;5004125;28;20228;-63
2021/04/30 10:50:33;;;;;;;76.77;40.80;;;;;;;;;;4996512;28;20222;-64
2021/04/30 10:53:14;;;;;;;88.53;46.00;;;;;;;;;;5009744;28;20224;-64
2021/04/30 10:55:41;;;;;;;82.50;44.53;;;;;;;;;;5010304;28;20282;-66
2021/04/30 10:58:08;;;;;;;87.07;46.80;;;;;;;;;;5012034;28;20294;-66
2021/04/30 11:00:40;;;;;;;84.60;43.43;;;;;;;;;;5023305;28;20204;-65
2021/04/30 11:03:17;;;;;;;73.73;43.47;;;;;;;;;;5023569;28;20232;-65
2021/04/30 11:05:57;;;;;;;69.77;40.17;;;;;;;;;;5015543;28;20226;-65
2021/04/30 11:08:42;;;;;;;71.67;42.97;;;;;;;;;;5011636;28;20227;-65
2021/04/30 11:11:09;;;;;;;72.90;38.13;;;;;;;;;;5012350;28;20589;-61
2021/04/30 11:13:36;;;;;;;64.40;37.60;;;;;;;;;;5011441;28;20736;-58
2021/04/30 11:16:02;;;;;;;67.27;38.73;;;;;;;;;;5020076;28;20209;-61
2021/04/30 11:18:30;;;;;;;59.17;35.60;;;;;;;;;;5019324;28;20261;-60
2021/04/30 11:21:02;;;;;;;61.40;35.93;;;;;;;;;;5019781;28;20817;-61
2021/04/30 11:23:30;;;;;;;69.53;40.40;;;;;;;;;;5017640;28;20242;-58
2021/04/30 11:26:05;;;;;;;83.97;42.97;;;;;;;;;;5011653;28;20212;-60
2021/04/30 11:28:51;;;;;;;69.17;38.33;;;;;;;;;;5011774;28;20222;-61
2021/04/30 11:31:26;;;;;;;68.03;38.63;;;;;;;;;;5011231;28;20792;-63
2021/04/30 11:34:07;;;;;;;71.07;39.07;;;;;;;;;;5011023;28;20635;-63
2021/04/30 11:36:34;;;;;;;66.20;37.73;;;;;;;;;;5011091;28;20574;-62
2021/04/30 11:39:14;;;;;;;65.43;38.20;;;;;;;;;;5011495;28;20559;-61
2021/04/30 11:41:41;;;;;;;65.37;34.33;;;;;;;;;;5010957;28;20777;-59
2021/04/30 11:44:08;;;;;;;63.37;34.07;;;;;;;;;;5010595;28;20214;-63
2021/04/30 11:46:36;;;;;;;66.60;36.67;;;;;;;;;;5011646;28;20246;-62
2021/04/30 11:49:03;;;;;;;51.50;32.00;;;;;;;;;;5011033;28;20234;-60
2021/04/30 11:51:30;;;;;;;63.67;38.17;;;;;;;;;;5027407;28;20581;-58
2021/04/30 11:53:57;;;;;;;63.20;39.43;;;;;;;;;;5029921;28;20321;-61
2021/04/30 11:56:30;;;;;;;68.50;37.43;;;;;;;;;;5029373;28;20670;-61
2021/04/30 11:58:56;;;;;;;58.60;36.03;;;;;;;;;;5030238;28;20214;-60
2021/04/30 12:01:24;;;;;;;57.67;36.10;;;;;;;;;;5030802;28;20210;-62
2021/04/30 12:03:53;;;;;;;64.83;36.07;;;;;;;;;;5030101;28;20202;-63
2021/04/30 12:06:20;;;;;;;60.77;34.63;;;;;;;;;;5030807;28;20737;-63
2021/04/30 12:08:48;;;;;;;62.50;35.63;;;;;;;;;;5034135;28;20742;-62
2021/04/30 12:11:23;;;;;;;64.07;36.23;;;;;;;;;;5034406;28;20210;-63
2021/04/30 12:13:50;;;;;;;58.23;36.90;;;;;;;;;;5034384;28;20308;-62
2021/04/30 12:16:17;;;;;;;54.20;32.97;;;;;;;;;;5034395;28;20221;-60
2021/04/30 12:18:43;;;;;;;60.27;34.37;;;;;;;;;;5034054;28;20202;-63
2021/04/30 12:21:11;;;;;;;61.47;33.50;;;;;;;;;;5033718;28;20260;-61
2021/04/30 12:23:38;;;;;;;53.80;30.90;;;;;;;;;;5033478;28;20210;-59
2021/04/30 12:26:05;;;;;;;60.67;33.47;;;;;;;;;;5034690;28;20210;-59
2021/04/30 12:28:32;;;;;;;61.50;34.87;;;;;;;;;;5034234;28;20253;-60
2021/04/30 12:31:00;;;;;;;62.90;36.27;;;;;;;;;;5033785;28;20621;-61
2021/04/30 12:33:28;;;;;;;58.73;34.07;;;;;;;;;;5033141;28;20264;-61
2021/04/30 12:35:57;;;;;;;55.87;34.07;;;;;;;;;;5033398;28;20207;-62
2021/04/30 12:38:25;;;;;;;63.80;35.87;;;;;;;;;;5033806;28;20687;-62
2021/04/30 12:40:51;;;;;;;57.33;34.00;;;;;;;;;;5033351;28;20221;-61
2021/04/30 12:43:25;;;;;;;60.13;36.60;;;;;;;;;;5032969;28;20223;-61
2021/04/30 12:45:51;;;;;;;61.17;34.63;;;;;;;;;;5033539;28;20249;-61
2021/04/30 12:48:18;;;;;;;62.77;36.20;;;;;;;;;;5032964;28;20230;-61
2021/04/30 12:50:45;;;;;;;56.40;32.83;;;;;;;;;;5012196;28;20203;-58
2021/04/30 12:53:11;;;;;;;52.30;30.47;;;;;;;;;;5013122;28;20702;-58
2021/04/30 12:55:39;;;;;;;54.57;33.07;;;;;;;;;;5013229;28;20215;-59
2021/04/30 12:58:08;;;;;;;47.03;28.43;;;;;;;;;;5014029;28;20203;-57
2021/04/30 13:00:53;;;;;;;45.23;27.97;;;;;;;;;;5013241;28;20231;-57
2021/04/30 13:03:20;;;;;;;46.40;27.43;;;;;;;;;;5013156;28;20230;-57
2021/04/30 13:05:47;;;;;;;45.00;26.73;;;;;;;;;;5013681;28;20221;-52
2021/04/30 13:08:14;;;;;;;45.30;26.40;;;;;;;;;;5013661;28;20218;-57
2021/04/30 13:10:41;;;;;;;47.47;27.80;;;;;;;;;;5013063;28;20611;-56
2021/04/30 13:13:08;;;;;;;42.13;27.10;;;;;;;;;;5013269;28;20238;-53
2021/04/30 13:15:35;;;;;;;42.30;25.37;;;;;;;;;;5013057;28;20710;-57
2021/04/30 13:18:02;;;;;;;39.80;25.80;;;;;;;;;;5012887;28;20333;-53
2021/04/30 13:20:31;;;;;;;41.80;25.00;;;;;;;;;;5012845;28;20207;-57
2021/04/30 13:23:01;;;;;;;42.53;25.07;;;;;;;;;;5013242;28;20335;-55
2021/04/30 13:25:31;;;;;;;38.57;26.53;;;;;;;;;;5013167;28;20207;-56
2021/04/30 13:27:58;;;;;;;42.73;26.93;;;;;;;;;;5013172;28;20222;-53
2021/04/30 13:30:35;;;;;;;37.60;25.70;;;;;;;;;;5012693;28;20202;-58
2021/04/30 13:33:17;;;;;;;46.33;29.50;;;;;;;;;;5012439;28;20230;-54
2021/04/30 13:35:44;;;;;;;40.87;26.23;;;;;;;;;;5012961;28;20203;-55
2021/04/30 13:38:11;;;;;;;40.47;27.03;;;;;;;;;;5012728;28;20203;-58
2021/04/30 13:40:38;;;;;;;42.97;27.67;;;;;;;;;;5012749;28;20211;-52
2021/04/30 13:43:06;;;;;;;40.53;25.50;;;;;;;;;;5012401;28;20222;-55
2021/04/30 13:45:34;;;;;;;32.67;24.83;;;;;;;;;;5012954;28;20243;-55
2021/04/30 13:48:01;;;;;;;43.67;27.43;;;;;;;;;;5013309;28;20207;-57
2021/04/30 13:50:28;;;;;;;36.67;24.87;;;;;;;;;;5012655;28;20220;-54
2021/04/30 13:52:56;;;;;;;32.10;24.77;;;;;;;;;;5011866;28;20283;-54
2021/04/30 13:55:22;;;;;;;37.03;25.10;;;;;;;;;;5012167;28;20207;-55
2021/04/30 13:57:49;;;;;;;34.93;23.60;;;;;;;;;;5013055;28;20207;-56
2021/04/30 14:00:17;;;;;;;39.57;25.23;;;;;;;;;;5012158;28;20207;-57
2021/04/30 14:02:45;;;;;;;35.50;23.40;;;;;;;;;;5012662;28;20247;-55
2021/04/30 14:05:12;;;;;;;34.47;23.20;;;;;;;;;;5011926;28;20693;-54
2021/04/30 14:07:40;;;;;;;32.60;22.73;;;;;;;;;;5012734;28;20215;-56
2021/04/30 14:10:07;;;;;;;34.60;23.37;;;;;;;;;;5012120;28;20338;-54
2021/04/30 14:12:34;;;;;;;30.97;22.80;;;;;;;;;;5012246;28;20270;-55
2021/04/30 14:15:00;;;;;;;31.00;21.80;;;;;;;;;;5011340;28;20213;-54
2021/04/30 14:17:28;;;;;;;32.10;21.53;;;;;;;;;;5012336;28;20214;-53
2021/04/30 14:19:54;;;;;;;29.77;20.17;;;;;;;;;;5011675;28;20204;-57